Au Sable, Michigan
Current Conditions -  °F | °C
As of 3:14 AM on Saturday 25 Oct 2014 (Local Time) from KOSC Reporting Station
Haze Haze  
Wind Chill: 42°   Ceiling: Unl
Heat Index: 45°   Visibility: 4mi
Dew Point: 45°   Wind: 5mph
Humidity: 100%   Direction: 210°SSW
Pressure: 29.81"   Gusts: NA
Location:  44.4539°N, 83.4813°W
Report Text: KOSC 250714Z AUTO 21004KT 4SM BR CLR 07/07 A2981 RMK AO2 T00700070
Loading
Personal Weather Stations






























Interactive Weather Map
Tropical Storm Tracking
New forecast layout! Learn more

10-Day Weather Forecast

Advertisements
Track Severe Weather on mobile